sensor_id;sensor_type;location;lat;lon;timestamp;temperature;humidity
56172;DHT22;42052;41.634;-0.946;2023-11-19T00:01:40;22.60;48.60
56172;DHT22;42052;41.634;-0.946;2023-11-19T00:04:06;22.50;48.60
56172;DHT22;42052;41.634;-0.946;2023-11-19T00:06:32;22.60;48.50
56172;DHT22;42052;41.634;-0.946;2023-11-19T00:08:58;22.60;48.60
56172;DHT22;42052;41.634;-0.946;2023-11-19T00:11:24;22.60;48.60
56172;DHT22;42052;41.634;-0.946;2023-11-19T00:13:50;22.60;48.50
56172;DHT22;42052;41.634;-0.946;2023-11-19T00:16:16;22.60;48.60
56172;DHT22;42052;41.634;-0.946;2023-11-19T00:18:42;22.60;48.50
56172;DHT22;42052;41.634;-0.946;2023-11-19T00:21:07;22.60;48.60
56172;DHT22;42052;41.634;-0.946;2023-11-19T00:23:35;22.60;48.50
56172;DHT22;42052;41.634;-0.946;2023-11-19T00:26:01;22.60;48.60
56172;DHT22;42052;41.634;-0.946;2023-11-19T00:28:26;22.50;48.50
56172;DHT22;42052;41.634;-0.946;2023-11-19T00:30:52;22.60;48.60
56172;DHT22;42052;41.634;-0.946;2023-11-19T00:33:18;22.50;48.60
56172;DHT22;42052;41.634;-0.946;2023-11-19T00:35:44;22.50;48.60
56172;DHT22;42052;41.634;-0.946;2023-11-19T00:38:10;22.50;48.50
56172;DHT22;42052;41.634;-0.946;2023-11-19T00:40:36;22.50;48.50
56172;DHT22;42052;41.634;-0.946;2023-11-19T00:43:01;22.50;49.20
56172;DHT22;42052;41.634;-0.946;2023-11-19T00:45:27;22.50;48.50
56172;DHT22;42052;41.634;-0.946;2023-11-19T00:47:53;22.50;48.50
56172;DHT22;42052;41.634;-0.946;2023-11-19T00:50:19;22.50;48.50
56172;DHT22;42052;41.634;-0.946;2023-11-19T00:52:45;22.50;48.50
56172;DHT22;42052;41.634;-0.946;2023-11-19T00:55:11;22.50;48.50
56172;DHT22;42052;41.634;-0.946;2023-11-19T00:57:37;22.50;48.40
56172;DHT22;42052;41.634;-0.946;2023-11-19T01:00:04;22.50;48.40
56172;DHT22;42052;41.634;-0.946;2023-11-19T01:02:41;22.50;48.50
56172;DHT22;42052;41.634;-0.946;2023-11-19T01:05:08;22.50;48.40
56172;DHT22;42052;41.634;-0.946;2023-11-19T01:07:34;22.50;48.60
56172;DHT22;42052;41.634;-0.946;2023-11-19T01:10:00;22.50;48.50
56172;DHT22;42052;41.634;-0.946;2023-11-19T01:12:26;22.60;48.50
56172;DHT22;42052;41.634;-0.946;2023-11-19T01:14:52;22.50;48.50
56172;DHT22;42052;41.634;-0.946;2023-11-19T01:17:17;22.50;48.50
56172;DHT22;42052;41.634;-0.946;2023-11-19T01:19:43;22.50;48.40
56172;DHT22;42052;41.634;-0.946;2023-11-19T01:22:09;22.50;48.40
56172;DHT22;42052;41.634;-0.946;2023-11-19T01:24:35;22.50;48.40
56172;DHT22;42052;41.634;-0.946;2023-11-19T01:27:00;22.50;48.40
56172;DHT22;42052;41.634;-0.946;2023-11-19T01:29:26;22.50;48.40
56172;DHT22;42052;41.634;-0.946;2023-11-19T01:31:52;22.50;48.40
56172;DHT22;42052;41.634;-0.946;2023-11-19T01:34:18;22.50;48.40
56172;DHT22;42052;41.634;-0.946;2023-11-19T01:36:44;22.50;48.40
56172;DHT22;42052;41.634;-0.946;2023-11-19T01:39:11;22.50;48.30
56172;DHT22;42052;41.634;-0.946;2023-11-19T01:41:37;22.50;48.40
56172;DHT22;42052;41.634;-0.946;2023-11-19T01:44:06;22.50;48.40
56172;DHT22;42052;41.634;-0.946;2023-11-19T01:46:32;22.50;48.30
56172;DHT22;42052;41.634;-0.946;2023-11-19T01:49:00;22.50;48.40
56172;DHT22;42052;41.634;-0.946;2023-11-19T01:51:28;22.50;48.30
56172;DHT22;42052;41.634;-0.946;2023-11-19T01:53:54;22.50;48.30
56172;DHT22;42052;41.634;-0.946;2023-11-19T01:56:21;22.50;48.30
56172;DHT22;42052;41.634;-0.946;2023-11-19T01:58:49;22.50;48.40
56172;DHT22;42052;41.634;-0.946;2023-11-19T02:01:16;22.50;48.30
56172;DHT22;42052;41.634;-0.946;2023-11-19T02:03:42;22.40;48.30
56172;DHT22;42052;41.634;-0.946;2023-11-19T02:06:08;22.40;48.30
56172;DHT22;42052;41.634;-0.946;2023-11-19T02:08:36;22.40;48.20
56172;DHT22;42052;41.634;-0.946;2023-11-19T02:11:03;22.40;48.20
56172;DHT22;42052;41.634;-0.946;2023-11-19T02:13:29;22.40;48.10
56172;DHT22;42052;41.634;-0.946;2023-11-19T02:15:54;22.40;48.10
56172;DHT22;42052;41.634;-0.946;2023-11-19T02:18:25;22.40;48.10
56172;DHT22;42052;41.634;-0.946;2023-11-19T02:20:53;22.40;48.20
56172;DHT22;42052;41.634;-0.946;2023-11-19T02:23:20;22.40;48.10
56172;DHT22;42052;41.634;-0.946;2023-11-19T02:26:12;22.50;48.20
56172;DHT22;42052;41.634;-0.946;2023-11-19T02:28:39;22.40;48.20
56172;DHT22;42052;41.634;-0.946;2023-11-19T02:31:07;22.40;48.10
56172;DHT22;42052;41.634;-0.946;2023-11-19T02:33:36;22.40;48.20
56172;DHT22;42052;41.634;-0.946;2023-11-19T02:36:03;22.40;48.30
56172;DHT22;42052;41.634;-0.946;2023-11-19T02:38:29;22.40;48.20
56172;DHT22;42052;41.634;-0.946;2023-11-19T02:40:56;22.40;48.60
56172;DHT22;42052;41.634;-0.946;2023-11-19T02:43:22;22.40;48.10
56172;DHT22;42052;41.634;-0.946;2023-11-19T02:45:49;22.40;48.30
56172;DHT22;42052;41.634;-0.946;2023-11-19T02:48:14;22.40;48.10
56172;DHT22;42052;41.634;-0.946;2023-11-19T02:50:42;22.40;48.20
56172;DHT22;42052;41.634;-0.946;2023-11-19T02:53:08;22.40;48.20
56172;DHT22;42052;41.634;-0.946;2023-11-19T02:55:33;22.40;48.20
56172;DHT22;42052;41.634;-0.946;2023-11-19T02:58:04;22.40;48.20
56172;DHT22;42052;41.634;-0.946;2023-11-19T03:00:45;22.40;48.10
56172;DHT22;42052;41.634;-0.946;2023-11-19T03:03:19;22.40;48.20
56172;DHT22;42052;41.634;-0.946;2023-11-19T03:05:48;22.40;48.30
56172;DHT22;42052;41.634;-0.946;2023-11-19T03:08:15;22.40;48.20
56172;DHT22;42052;41.634;-0.946;2023-11-19T03:10:41;22.40;48.20
56172;DHT22;42052;41.634;-0.946;2023-11-19T03:13:11;22.40;48.30
56172;DHT22;42052;41.634;-0.946;2023-11-19T03:15:41;22.40;48.30
56172;DHT22;42052;41.634;-0.946;2023-11-19T03:18:07;22.40;48.20
56172;DHT22;42052;41.634;-0.946;2023-11-19T03:20:33;22.40;48.20
56172;DHT22;42052;41.634;-0.946;2023-11-19T03:22:59;22.30;48.10
56172;DHT22;42052;41.634;-0.946;2023-11-19T03:25:25;22.30;48.10
56172;DHT22;42052;41.634;-0.946;2023-11-19T03:28:02;22.30;48.10
56172;DHT22;42052;41.634;-0.946;2023-11-19T03:30:29;22.40;48.10
56172;DHT22;42052;41.634;-0.946;2023-11-19T03:32:56;22.40;48.10
56172;DHT22;42052;41.634;-0.946;2023-11-19T03:35:22;22.30;48.10
56172;DHT22;42052;41.634;-0.946;2023-11-19T03:37:49;22.30;48.00
56172;DHT22;42052;41.634;-0.946;2023-11-19T03:40:14;22.30;48.00
56172;DHT22;42052;41.634;-0.946;2023-11-19T03:42:40;22.30;48.00
56172;DHT22;42052;41.634;-0.946;2023-11-19T03:45:07;22.30;48.00
56172;DHT22;42052;41.634;-0.946;2023-11-19T03:47:37;22.30;48.00
56172;DHT22;42052;41.634;-0.946;2023-11-19T03:50:03;22.30;48.00
56172;DHT22;42052;41.634;-0.946;2023-11-19T03:52:29;22.30;47.90
56172;DHT22;42052;41.634;-0.946;2023-11-19T03:54:55;22.30;47.90
56172;DHT22;42052;41.634;-0.946;2023-11-19T03:57:23;22.30;47.90
56172;DHT22;42052;41.634;-0.946;2023-11-19T03:59:48;22.30;47.90
56172;DHT22;42052;41.634;-0.946;2023-11-19T04:02:15;22.30;48.00
56172;DHT22;42052;41.634;-0.946;2023-11-19T04:04:41;22.30;47.90
56172;DHT22;42052;41.634;-0.946;2023-11-19T04:07:07;22.30;47.80
56172;DHT22;42052;41.634;-0.946;2023-11-19T04:09:33;22.30;47.80
56172;DHT22;42052;41.634;-0.946;2023-11-19T04:11:59;22.30;47.90
56172;DHT22;42052;41.634;-0.946;2023-11-19T04:14:26;22.30;47.80
56172;DHT22;42052;41.634;-0.946;2023-11-19T04:16:52;22.30;48.00
56172;DHT22;42052;41.634;-0.946;2023-11-19T04:19:19;22.30;47.90
56172;DHT22;42052;41.634;-0.946;2023-11-19T04:21:45;22.30;47.90
56172;DHT22;42052;41.634;-0.946;2023-11-19T04:24:11;22.30;47.90
56172;DHT22;42052;41.634;-0.946;2023-11-19T04:26:41;22.30;48.00
56172;DHT22;42052;41.634;-0.946;2023-11-19T04:29:09;22.30;47.90
56172;DHT22;42052;41.634;-0.946;2023-11-19T04:31:35;22.30;47.80
56172;DHT22;42052;41.634;-0.946;2023-11-19T04:34:00;22.30;47.80
56172;DHT22;42052;41.634;-0.946;2023-11-19T04:36:26;22.30;47.80
56172;DHT22;42052;41.634;-0.946;2023-11-19T04:38:52;22.30;47.90
56172;DHT22;42052;41.634;-0.946;2023-11-19T04:41:18;22.20;47.80
56172;DHT22;42052;41.634;-0.946;2023-11-19T04:43:44;22.20;47.80
56172;DHT22;42052;41.634;-0.946;2023-11-19T04:46:10;22.20;47.80
56172;DHT22;42052;41.634;-0.946;2023-11-19T04:48:35;22.20;47.80
56172;DHT22;42052;41.634;-0.946;2023-11-19T04:51:04;22.20;47.70
56172;DHT22;42052;41.634;-0.946;2023-11-19T04:53:30;22.20;47.70
56172;DHT22;42052;41.634;-0.946;2023-11-19T04:55:55;22.20;47.80
56172;DHT22;42052;41.634;-0.946;2023-11-19T04:58:21;22.20;47.80
56172;DHT22;42052;41.634;-0.946;2023-11-19T05:00:47;22.20;47.80
56172;DHT22;42052;41.634;-0.946;2023-11-19T05:03:12;22.30;47.80
56172;DHT22;42052;41.634;-0.946;2023-11-19T05:05:38;22.20;47.70
56172;DHT22;42052;41.634;-0.946;2023-11-19T05:08:04;22.20;47.80
56172;DHT22;42052;41.634;-0.946;2023-11-19T05:10:30;22.20;47.70
56172;DHT22;42052;41.634;-0.946;2023-11-19T05:12:56;22.20;47.80
56172;DHT22;42052;41.634;-0.946;2023-11-19T05:15:22;22.20;47.70
56172;DHT22;42052;41.634;-0.946;2023-11-19T05:17:49;22.20;47.80
56172;DHT22;42052;41.634;-0.946;2023-11-19T05:20:15;22.20;47.70
56172;DHT22;42052;41.634;-0.946;2023-11-19T05:22:42;22.20;47.60
56172;DHT22;42052;41.634;-0.946;2023-11-19T05:25:08;22.20;47.70
56172;DHT22;42052;41.634;-0.946;2023-11-19T05:27:38;22.20;47.70
56172;DHT22;42052;41.634;-0.946;2023-11-19T05:30:05;22.20;47.70
56172;DHT22;42052;41.634;-0.946;2023-11-19T05:32:33;22.20;47.80
56172;DHT22;42052;41.634;-0.946;2023-11-19T05:34:59;22.20;47.70
56172;DHT22;42052;41.634;-0.946;2023-11-19T05:37:25;22.20;47.70
56172;DHT22;42052;41.634;-0.946;2023-11-19T05:39:51;22.20;47.80
56172;DHT22;42052;41.634;-0.946;2023-11-19T05:42:17;22.20;47.70
56172;DHT22;42052;41.634;-0.946;2023-11-19T05:44:43;22.20;47.70
56172;DHT22;42052;41.634;-0.946;2023-11-19T05:47:09;22.20;47.60
56172;DHT22;42052;41.634;-0.946;2023-11-19T05:49:34;22.20;48.40
56172;DHT22;42052;41.634;-0.946;2023-11-19T05:52:00;22.20;47.60
56172;DHT22;42052;41.634;-0.946;2023-11-19T05:54:28;22.20;47.60
56172;DHT22;42052;41.634;-0.946;2023-11-19T05:56:54;22.20;48.00
56172;DHT22;42052;41.634;-0.946;2023-11-19T05:59:20;22.20;47.60
56172;DHT22;42052;41.634;-0.946;2023-11-19T06:01:48;22.20;47.60
56172;DHT22;42052;41.634;-0.946;2023-11-19T06:04:14;22.20;47.60
56172;DHT22;42052;41.634;-0.946;2023-11-19T06:06:40;22.20;47.60
56172;DHT22;42052;41.634;-0.946;2023-11-19T06:09:06;22.20;47.70
56172;DHT22;42052;41.634;-0.946;2023-11-19T06:11:35;22.20;47.60
56172;DHT22;42052;41.634;-0.946;2023-11-19T06:14:01;22.20;47.60
56172;DHT22;42052;41.634;-0.946;2023-11-19T06:16:28;22.20;47.50
56172;DHT22;42052;41.634;-0.946;2023-11-19T06:18:54;22.20;47.50
56172;DHT22;42052;41.634;-0.946;2023-11-19T06:21:20;22.20;47.60
56172;DHT22;42052;41.634;-0.946;2023-11-19T06:23:46;22.20;47.50
56172;DHT22;42052;41.634;-0.946;2023-11-19T06:26:11;22.20;47.50
56172;DHT22;42052;41.634;-0.946;2023-11-19T06:28:37;22.10;47.50
56172;DHT22;42052;41.634;-0.946;2023-11-19T06:31:03;22.20;47.50
56172;DHT22;42052;41.634;-0.946;2023-11-19T06:33:29;22.10;47.40
56172;DHT22;42052;41.634;-0.946;2023-11-19T06:35:55;22.10;47.40
56172;DHT22;42052;41.634;-0.946;2023-11-19T06:38:21;22.10;47.40
56172;DHT22;42052;41.634;-0.946;2023-11-19T06:40:46;22.10;47.50
56172;DHT22;42052;41.634;-0.946;2023-11-19T06:43:12;22.10;47.40
56172;DHT22;42052;41.634;-0.946;2023-11-19T06:45:39;22.10;47.30
56172;DHT22;42052;41.634;-0.946;2023-11-19T06:48:05;22.10;47.40
56172;DHT22;42052;41.634;-0.946;2023-11-19T06:50:33;22.10;47.40
56172;DHT22;42052;41.634;-0.946;2023-11-19T06:52:59;22.10;47.40
56172;DHT22;42052;41.634;-0.946;2023-11-19T06:55:26;22.10;47.50
56172;DHT22;42052;41.634;-0.946;2023-11-19T06:57:53;22.10;47.50
56172;DHT22;42052;41.634;-0.946;2023-11-19T07:00:18;22.10;47.40
56172;DHT22;42052;41.634;-0.946;2023-11-19T07:02:44;22.10;47.30
56172;DHT22;42052;41.634;-0.946;2023-11-19T07:05:10;22.10;47.30
56172;DHT22;42052;41.634;-0.946;2023-11-19T07:07:37;22.10;47.40
56172;DHT22;42052;41.634;-0.946;2023-11-19T07:10:03;22.10;47.30
56172;DHT22;42052;41.634;-0.946;2023-11-19T07:12:30;22.10;47.40
56172;DHT22;42052;41.634;-0.946;2023-11-19T07:14:56;22.10;47.40
56172;DHT22;42052;41.634;-0.946;2023-11-19T07:17:22;22.10;47.40
56172;DHT22;42052;41.634;-0.946;2023-11-19T07:19:50;22.10;47.30
56172;DHT22;42052;41.634;-0.946;2023-11-19T07:22:15;22.10;47.30
56172;DHT22;42052;41.634;-0.946;2023-11-19T07:24:41;22.10;47.40
56172;DHT22;42052;41.634;-0.946;2023-11-19T07:27:08;22.10;47.40
56172;DHT22;42052;41.634;-0.946;2023-11-19T07:29:35;22.10;47.30
56172;DHT22;42052;41.634;-0.946;2023-11-19T07:32:01;22.10;47.30
56172;DHT22;42052;41.634;-0.946;2023-11-19T07:34:30;22.10;47.30
56172;DHT22;42052;41.634;-0.946;2023-11-19T07:36:56;22.10;47.40
56172;DHT22;42052;41.634;-0.946;2023-11-19T07:39:28;22.10;47.20
56172;DHT22;42052;41.634;-0.946;2023-11-19T07:41:53;22.10;47.30
56172;DHT22;42052;41.634;-0.946;2023-11-19T07:44:20;22.10;47.30
56172;DHT22;42052;41.634;-0.946;2023-11-19T07:46:47;22.10;47.30
56172;DHT22;42052;41.634;-0.946;2023-11-19T07:49:13;22.10;47.30
56172;DHT22;42052;41.634;-0.946;2023-11-19T07:51:39;22.10;47.30
56172;DHT22;42052;41.634;-0.946;2023-11-19T07:54:05;22.10;47.30
56172;DHT22;42052;41.634;-0.946;2023-11-19T07:56:34;22.00;47.20
56172;DHT22;42052;41.634;-0.946;2023-11-19T07:59:02;22.10;47.30
56172;DHT22;42052;41.634;-0.946;2023-11-19T08:01:27;22.10;47.30
56172;DHT22;42052;41.634;-0.946;2023-11-19T08:03:54;22.00;47.20
56172;DHT22;42052;41.634;-0.946;2023-11-19T08:06:19;22.10;47.30
56172;DHT22;42052;41.634;-0.946;2023-11-19T08:08:45;22.00;47.20
56172;DHT22;42052;41.634;-0.946;2023-11-19T08:11:13;22.10;47.30
56172;DHT22;42052;41.634;-0.946;2023-11-19T08:13:39;22.10;47.70
56172;DHT22;42052;41.634;-0.946;2023-11-19T08:16:05;22.00;47.20
56172;DHT22;42052;41.634;-0.946;2023-11-19T08:18:31;22.00;47.20
56172;DHT22;42052;41.634;-0.946;2023-11-19T08:20:57;22.00;47.20
56172;DHT22;42052;41.634;-0.946;2023-11-19T08:23:24;22.00;47.10
56172;DHT22;42052;41.634;-0.946;2023-11-19T08:25:51;22.00;47.10
56172;DHT22;42052;41.634;-0.946;2023-11-19T08:28:17;22.00;47.10
56172;DHT22;42052;41.634;-0.946;2023-11-19T08:30:43;22.00;47.00
56172;DHT22;42052;41.634;-0.946;2023-11-19T08:33:09;22.00;47.00
56172;DHT22;42052;41.634;-0.946;2023-11-19T08:35:35;22.00;47.30
56172;DHT22;42052;41.634;-0.946;2023-11-19T08:38:01;22.00;47.20
56172;DHT22;42052;41.634;-0.946;2023-11-19T08:40:27;22.00;47.00
56172;DHT22;42052;41.634;-0.946;2023-11-19T08:42:55;22.00;47.30
56172;DHT22;42052;41.634;-0.946;2023-11-19T08:45:21;22.00;47.10
56172;DHT22;42052;41.634;-0.946;2023-11-19T08:47:47;22.00;47.20
56172;DHT22;42052;41.634;-0.946;2023-11-19T08:50:13;22.00;47.30
56172;DHT22;42052;41.634;-0.946;2023-11-19T08:52:39;22.00;47.30
56172;DHT22;42052;41.634;-0.946;2023-11-19T08:55:05;22.00;47.20
56172;DHT22;42052;41.634;-0.946;2023-11-19T08:57:31;22.00;47.30
56172;DHT22;42052;41.634;-0.946;2023-11-19T08:59:58;22.00;47.20
56172;DHT22;42052;41.634;-0.946;2023-11-19T09:02:24;22.00;47.20
56172;DHT22;42052;41.634;-0.946;2023-11-19T09:04:50;22.00;47.30
56172;DHT22;42052;41.634;-0.946;2023-11-19T09:07:16;22.00;47.30
56172;DHT22;42052;41.634;-0.946;2023-11-19T09:09:42;22.00;47.20
56172;DHT22;42052;41.634;-0.946;2023-11-19T09:12:07;22.00;47.20
56172;DHT22;42052;41.634;-0.946;2023-11-19T09:14:33;22.00;47.30
56172;DHT22;42052;41.634;-0.946;2023-11-19T09:16:59;22.00;47.30
56172;DHT22;42052;41.634;-0.946;2023-11-19T09:19:25;22.00;47.30
56172;DHT22;42052;41.634;-0.946;2023-11-19T09:21:54;22.00;47.30
56172;DHT22;42052;41.634;-0.946;2023-11-19T09:24:20;22.00;47.30
56172;DHT22;42052;41.634;-0.946;2023-11-19T09:26:46;22.00;47.30
56172;DHT22;42052;41.634;-0.946;2023-11-19T09:29:11;22.00;48.10
56172;DHT22;42052;41.634;-0.946;2023-11-19T09:31:39;22.00;47.30
56172;DHT22;42052;41.634;-0.946;2023-11-19T09:34:06;22.00;47.30
56172;DHT22;42052;41.634;-0.946;2023-11-19T09:36:32;22.00;47.20
56172;DHT22;42052;41.634;-0.946;2023-11-19T09:38:57;22.00;47.20
56172;DHT22;42052;41.634;-0.946;2023-11-19T09:41:26;22.00;47.20
56172;DHT22;42052;41.634;-0.946;2023-11-19T09:43:53;22.00;47.20
56172;DHT22;42052;41.634;-0.946;2023-11-19T09:46:19;22.00;47.20
56172;DHT22;42052;41.634;-0.946;2023-11-19T09:48:46;22.00;47.10
56172;DHT22;42052;41.634;-0.946;2023-11-19T09:51:14;22.00;47.10
56172;DHT22;42052;41.634;-0.946;2023-11-19T09:53:40;22.00;47.30
56172;DHT22;42052;41.634;-0.946;2023-11-19T09:56:06;22.00;47.10
56172;DHT22;42052;41.634;-0.946;2023-11-19T09:58:33;22.00;47.20
56172;DHT22;42052;41.634;-0.946;2023-11-19T10:01:00;22.00;47.30
56172;DHT22;42052;41.634;-0.946;2023-11-19T10:03:35;22.00;47.30
56172;DHT22;42052;41.634;-0.946;2023-11-19T10:06:04;22.00;47.30
56172;DHT22;42052;41.634;-0.946;2023-11-19T10:08:30;22.00;47.40
56172;DHT22;42052;41.634;-0.946;2023-11-19T10:10:56;22.10;47.50
56172;DHT22;42052;41.634;-0.946;2023-11-19T10:13:26;22.10;47.50
56172;DHT22;42052;41.634;-0.946;2023-11-19T10:15:55;22.10;48.30
56172;DHT22;42052;41.634;-0.946;2023-11-19T10:18:27;22.10;47.60
56172;DHT22;42052;41.634;-0.946;2023-11-19T10:20:53;22.10;47.60
56172;DHT22;42052;41.634;-0.946;2023-11-19T10:23:20;22.10;47.60
56172;DHT22;42052;41.634;-0.946;2023-11-19T10:25:46;22.10;47.70
56172;DHT22;42052;41.634;-0.946;2023-11-19T10:28:15;22.10;47.60
56172;DHT22;42052;41.634;-0.946;2023-11-19T10:30:42;22.10;47.70
56172;DHT22;42052;41.634;-0.946;2023-11-19T10:33:10;22.10;47.80
56172;DHT22;42052;41.634;-0.946;2023-11-19T10:35:54;22.10;47.80
56172;DHT22;42052;41.634;-0.946;2023-11-19T10:38:21;22.10;47.70
56172;DHT22;42052;41.634;-0.946;2023-11-19T10:40:48;22.10;47.70
56172;DHT22;42052;41.634;-0.946;2023-11-19T10:43:14;22.10;47.80
56172;DHT22;42052;41.634;-0.946;2023-11-19T10:45:40;22.10;47.80
56172;DHT22;42052;41.634;-0.946;2023-11-19T10:48:07;22.10;47.70
56172;DHT22;42052;41.634;-0.946;2023-11-19T10:50:37;22.10;47.70
56172;DHT22;42052;41.634;-0.946;2023-11-19T10:53:08;22.10;47.70
56172;DHT22;42052;41.634;-0.946;2023-11-19T10:55:35;22.10;47.60
56172;DHT22;42052;41.634;-0.946;2023-11-19T10:58:10;22.10;47.70
56172;DHT22;42052;41.634;-0.946;2023-11-19T11:00:57;22.10;47.70
56172;DHT22;42052;41.634;-0.946;2023-11-19T11:03:26;22.10;47.70
56172;DHT22;42052;41.634;-0.946;2023-11-19T11:05:56;22.10;47.70
56172;DHT22;42052;41.634;-0.946;2023-11-19T11:08:23;22.20;47.90
56172;DHT22;42052;41.634;-0.946;2023-11-19T11:10:54;22.20;47.80
56172;DHT22;42052;41.634;-0.946;2023-11-19T11:13:22;22.20;47.90
56172;DHT22;42052;41.634;-0.946;2023-11-19T11:15:50;22.20;48.00
56172;DHT22;42052;41.634;-0.946;2023-11-19T11:18:16;22.20;47.90
56172;DHT22;42052;41.634;-0.946;2023-11-19T11:20:46;22.20;47.90
56172;DHT22;42052;41.634;-0.946;2023-11-19T11:37:18;22.20;48.00
56172;DHT22;42052;41.634;-0.946;2023-11-19T11:39:46;22.20;48.00
56172;DHT22;42052;41.634;-0.946;2023-11-19T11:45:06;22.20;48.00
56172;DHT22;42052;41.634;-0.946;2023-11-19T11:50:18;22.20;48.00
56172;DHT22;42052;41.634;-0.946;2023-11-19T11:55:37;22.20;48.20
56172;DHT22;42052;41.634;-0.946;2023-11-19T11:58:27;22.20;48.20
56172;DHT22;42052;41.634;-0.946;2023-11-19T12:01:01;22.30;48.10
56172;DHT22;42052;41.634;-0.946;2023-11-19T12:03:28;22.30;48.10
56172;DHT22;42052;41.634;-0.946;2023-11-19T12:05:55;22.20;48.00
56172;DHT22;42052;41.634;-0.946;2023-11-19T12:08:26;22.30;48.00
56172;DHT22;42052;41.634;-0.946;2023-11-19T12:10:54;22.30;48.00
56172;DHT22;42052;41.634;-0.946;2023-11-19T12:13:24;22.30;48.00
56172;DHT22;42052;41.634;-0.946;2023-11-19T12:18:31;22.30;47.90
56172;DHT22;42052;41.634;-0.946;2023-11-19T12:20:59;22.30;47.90
56172;DHT22;42052;41.634;-0.946;2023-11-19T12:23:29;22.30;47.90
56172;DHT22;42052;41.634;-0.946;2023-11-19T12:25:56;22.30;47.90
56172;DHT22;42052;41.634;-0.946;2023-11-19T12:28:22;22.30;47.90
56172;DHT22;42052;41.634;-0.946;2023-11-19T12:30:50;22.30;47.80
56172;DHT22;42052;41.634;-0.946;2023-11-19T12:33:16;22.30;47.90
56172;DHT22;42052;41.634;-0.946;2023-11-19T12:35:44;22.30;47.90
56172;DHT22;42052;41.634;-0.946;2023-11-19T12:38:24;22.30;47.80
56172;DHT22;42052;41.634;-0.946;2023-11-19T12:41:03;22.30;47.90
56172;DHT22;42052;41.634;-0.946;2023-11-19T12:43:29;22.40;47.90
56172;DHT22;42052;41.634;-0.946;2023-11-19T12:45:56;22.40;47.90
56172;DHT22;42052;41.634;-0.946;2023-11-19T12:48:22;22.40;47.90
56172;DHT22;42052;41.634;-0.946;2023-11-19T12:50:55;22.40;47.90
56172;DHT22;42052;41.634;-0.946;2023-11-19T12:53:23;22.40;47.80
56172;DHT22;42052;41.634;-0.946;2023-11-19T12:55:52;22.40;47.80
56172;DHT22;42052;41.634;-0.946;2023-11-19T12:58:32;22.40;47.80
56172;DHT22;42052;41.634;-0.946;2023-11-19T13:01:05;22.40;47.80
56172;DHT22;42052;41.634;-0.946;2023-11-19T13:03:32;22.40;47.90
56172;DHT22;42052;41.634;-0.946;2023-11-19T13:06:10;22.40;47.90
56172;DHT22;42052;41.634;-0.946;2023-11-19T13:08:43;22.40;47.90
56172;DHT22;42052;41.634;-0.946;2023-11-19T13:11:14;22.40;48.00
56172;DHT22;42052;41.634;-0.946;2023-11-19T13:13:57;22.40;48.00
56172;DHT22;42052;41.634;-0.946;2023-11-19T13:16:23;22.40;48.00
56172;DHT22;42052;41.634;-0.946;2023-11-19T13:18:49;22.40;48.00
56172;DHT22;42052;41.634;-0.946;2023-11-19T13:21:15;22.40;48.00
56172;DHT22;42052;41.634;-0.946;2023-11-19T13:23:41;22.40;48.00
56172;DHT22;42052;41.634;-0.946;2023-11-19T13:26:08;22.50;48.00
56172;DHT22;42052;41.634;-0.946;2023-11-19T13:28:34;22.40;48.10
56172;DHT22;42052;41.634;-0.946;2023-11-19T13:31:00;22.40;48.00
56172;DHT22;42052;41.634;-0.946;2023-11-19T13:33:26;22.50;48.10
56172;DHT22;42052;41.634;-0.946;2023-11-19T13:35:52;22.50;48.10
56172;DHT22;42052;41.634;-0.946;2023-11-19T13:38:18;22.50;48.00
56172;DHT22;42052;41.634;-0.946;2023-11-19T13:40:44;22.50;48.10
56172;DHT22;42052;41.634;-0.946;2023-11-19T13:43:10;22.50;48.10
56172;DHT22;42052;41.634;-0.946;2023-11-19T13:45:35;22.50;48.00
56172;DHT22;42052;41.634;-0.946;2023-11-19T13:48:01;22.50;48.00
56172;DHT22;42052;41.634;-0.946;2023-11-19T13:50:27;22.50;48.00
56172;DHT22;42052;41.634;-0.946;2023-11-19T13:52:54;22.50;48.00
56172;DHT22;42052;41.634;-0.946;2023-11-19T13:55:20;22.50;48.00
56172;DHT22;42052;41.634;-0.946;2023-11-19T13:57:45;22.50;48.00
56172;DHT22;42052;41.634;-0.946;2023-11-19T14:00:12;22.50;48.00
56172;DHT22;42052;41.634;-0.946;2023-11-19T14:02:42;22.50;48.00
56172;DHT22;42052;41.634;-0.946;2023-11-19T14:05:09;22.50;48.00
56172;DHT22;42052;41.634;-0.946;2023-11-19T14:07:36;22.50;47.90
56172;DHT22;42052;41.634;-0.946;2023-11-19T14:10:02;22.50;47.90
56172;DHT22;42052;41.634;-0.946;2023-11-19T14:12:28;22.50;47.90
56172;DHT22;42052;41.634;-0.946;2023-11-19T14:14:54;22.50;48.30
56172;DHT22;42052;41.634;-0.946;2023-11-19T14:17:20;22.50;47.90
56172;DHT22;42052;41.634;-0.946;2023-11-19T14:19:46;22.50;47.90
56172;DHT22;42052;41.634;-0.946;2023-11-19T14:22:12;22.50;47.80
56172;DHT22;42052;41.634;-0.946;2023-11-19T14:24:38;22.50;47.90
56172;DHT22;42052;41.634;-0.946;2023-11-19T14:27:05;22.50;47.80
56172;DHT22;42052;41.634;-0.946;2023-11-19T14:29:31;22.50;47.90
56172;DHT22;42052;41.634;-0.946;2023-11-19T14:31:57;22.50;47.90
56172;DHT22;42052;41.634;-0.946;2023-11-19T14:34:24;22.50;47.90
56172;DHT22;42052;41.634;-0.946;2023-11-19T14:36:51;22.50;47.90
56172;DHT22;42052;41.634;-0.946;2023-11-19T14:39:17;22.60;48.00
56172;DHT22;42052;41.634;-0.946;2023-11-19T14:41:43;22.60;47.90
56172;DHT22;42052;41.634;-0.946;2023-11-19T14:44:12;22.60;48.00
56172;DHT22;42052;41.634;-0.946;2023-11-19T14:46:38;22.60;47.90
56172;DHT22;42052;41.634;-0.946;2023-11-19T14:49:04;22.50;47.80
56172;DHT22;42052;41.634;-0.946;2023-11-19T14:51:30;22.60;48.00
56172;DHT22;42052;41.634;-0.946;2023-11-19T14:53:57;22.60;47.90
56172;DHT22;42052;41.634;-0.946;2023-11-19T14:56:23;22.60;47.90
56172;DHT22;42052;41.634;-0.946;2023-11-19T14:58:49;22.60;47.90
56172;DHT22;42052;41.634;-0.946;2023-11-19T15:01:16;22.60;47.80
56172;DHT22;42052;41.634;-0.946;2023-11-19T15:03:43;22.60;47.90
56172;DHT22;42052;41.634;-0.946;2023-11-19T15:06:09;22.60;47.90
56172;DHT22;42052;41.634;-0.946;2023-11-19T15:08:37;22.60;47.80
56172;DHT22;42052;41.634;-0.946;2023-11-19T15:11:03;22.60;47.80
56172;DHT22;42052;41.634;-0.946;2023-11-19T15:13:30;22.60;47.80
56172;DHT22;42052;41.634;-0.946;2023-11-19T15:15:57;22.60;47.90
56172;DHT22;42052;41.634;-0.946;2023-11-19T15:18:23;22.60;47.80
56172;DHT22;42052;41.634;-0.946;2023-11-19T15:20:49;22.60;47.90
56172;DHT22;42052;41.634;-0.946;2023-11-19T15:23:15;22.60;47.90
56172;DHT22;42052;41.634;-0.946;2023-11-19T15:25:41;22.60;47.90
56172;DHT22;42052;41.634;-0.946;2023-11-19T15:28:07;22.60;48.00
56172;DHT22;42052;41.634;-0.946;2023-11-19T15:30:33;22.60;48.00
56172;DHT22;42052;41.634;-0.946;2023-11-19T15:32:58;22.60;48.00
56172;DHT22;42052;41.634;-0.946;2023-11-19T15:35:24;22.60;48.10
56172;DHT22;42052;41.634;-0.946;2023-11-19T15:37:51;22.60;48.30
56172;DHT22;42052;41.634;-0.946;2023-11-19T15:40:16;22.70;48.70